sensor_id;sensor_type;location;lat;lon;timestamp;P1;durP1;ratioP1;P2;durP2;ratioP2
18435;SDS011;9346;52.006;4.720;2022-12-07T00:01:05;5.47;;;1.97;;
18435;SDS011;9346;52.006;4.720;2022-12-07T00:03:32;7.77;;;2.20;;
18435;SDS011;9346;52.006;4.720;2022-12-07T00:06:00;7.03;;;1.77;;
18435;SDS011;9346;52.006;4.720;2022-12-07T00:08:27;2.30;;;1.20;;
18435;SDS011;9346;52.006;4.720;2022-12-07T00:11:00;6.73;;;1.87;;
18435;SDS011;9346;52.006;4.720;2022-12-07T00:13:31;3.93;;;1.23;;
18435;SDS011;9346;52.006;4.720;2022-12-07T00:16:01;3.10;;;1.43;;
18435;SDS011;9346;52.006;4.720;2022-12-07T00:18:32;3.60;;;1.60;;
18435;SDS011;9346;52.006;4.720;2022-12-07T00:20:59;3.27;;;1.20;;
18435;SDS011;9346;52.006;4.720;2022-12-07T00:23:27;2.00;;;1.27;;
18435;SDS011;9346;52.006;4.720;2022-12-07T00:25:54;3.40;;;1.13;;
18435;SDS011;9346;52.006;4.720;2022-12-07T00:28:21;7.07;;;1.70;;
18435;SDS011;9346;52.006;4.720;2022-12-07T00:30:50;5.90;;;1.50;;
18435;SDS011;9346;52.006;4.720;2022-12-07T00:33:17;12.87;;;2.10;;
18435;SDS011;9346;52.006;4.720;2022-12-07T00:35:44;8.07;;;1.60;;
18435;SDS011;9346;52.006;4.720;2022-12-07T00:38:11;3.20;;;1.20;;
18435;SDS011;9346;52.006;4.720;2022-12-07T00:40:37;4.90;;;1.40;;
18435;SDS011;9346;52.006;4.720;2022-12-07T00:43:04;1.50;;;1.07;;
18435;SDS011;9346;52.006;4.720;2022-12-07T00:45:31;3.87;;;1.60;;
18435;SDS011;9346;52.006;4.720;2022-12-07T00:48:00;3.83;;;1.00;;
18435;SDS011;9346;52.006;4.720;2022-12-07T00:50:27;1.57;;;1.00;;
18435;SDS011;9346;52.006;4.720;2022-12-07T00:52:55;1.00;;;0.60;;
18435;SDS011;9346;52.006;4.720;2022-12-07T00:55:22;3.23;;;1.80;;
18435;SDS011;9346;52.006;4.720;2022-12-07T00:57:50;5.07;;;1.70;;
18435;SDS011;9346;52.006;4.720;2022-12-07T01:00:17;2.63;;;1.00;;
18435;SDS011;9346;52.006;4.720;2022-12-07T01:02:44;3.97;;;1.30;;
18435;SDS011;9346;52.006;4.720;2022-12-07T01:05:13;7.47;;;1.13;;
18435;SDS011;9346;52.006;4.720;2022-12-07T01:07:41;3.33;;;1.40;;
18435;SDS011;9346;52.006;4.720;2022-12-07T01:10:08;3.00;;;1.20;;
18435;SDS011;9346;52.006;4.720;2022-12-07T01:12:35;2.73;;;1.13;;
18435;SDS011;9346;52.006;4.720;2022-12-07T01:15:02;6.13;;;1.57;;
18435;SDS011;9346;52.006;4.720;2022-12-07T01:17:29;0.60;;;0.50;;
18435;SDS011;9346;52.006;4.720;2022-12-07T01:19:56;4.40;;;0.93;;
18435;SDS011;9346;52.006;4.720;2022-12-07T01:22:26;2.90;;;0.77;;
18435;SDS011;9346;52.006;4.720;2022-12-07T01:24:53;2.50;;;0.60;;
18435;SDS011;9346;52.006;4.720;2022-12-07T01:27:20;2.07;;;0.93;;
18435;SDS011;9346;52.006;4.720;2022-12-07T01:29:47;1.77;;;0.47;;
18435;SDS011;9346;52.006;4.720;2022-12-07T01:32:14;0.40;;;0.40;;
18435;SDS011;9346;52.006;4.720;2022-12-07T01:34:40;3.40;;;0.60;;
18435;SDS011;9346;52.006;4.720;2022-12-07T01:37:07;4.47;;;0.73;;
18435;SDS011;9346;52.006;4.720;2022-12-07T01:39:36;2.53;;;0.30;;
18435;SDS011;9346;52.006;4.720;2022-12-07T01:42:03;3.80;;;0.50;;
18435;SDS011;9346;52.006;4.720;2022-12-07T01:44:30;2.77;;;0.50;;
18435;SDS011;9346;52.006;4.720;2022-12-07T01:46:58;0.33;;;0.30;;
18435;SDS011;9346;52.006;4.720;2022-12-07T01:49:29;3.20;;;0.40;;
18435;SDS011;9346;52.006;4.720;2022-12-07T01:52:05;1.93;;;0.60;;
18435;SDS011;9346;52.006;4.720;2022-12-07T01:54:41;0.63;;;0.20;;
18435;SDS011;9346;52.006;4.720;2022-12-07T01:57:09;2.00;;;0.50;;
18435;SDS011;9346;52.006;4.720;2022-12-07T01:59:37;3.43;;;1.13;;
18435;SDS011;9346;52.006;4.720;2022-12-07T02:02:07;4.23;;;0.70;;
18435;SDS011;9346;52.006;4.720;2022-12-07T02:04:37;2.07;;;1.40;;
18435;SDS011;9346;52.006;4.720;2022-12-07T02:07:04;8.93;;;1.80;;
18435;SDS011;9346;52.006;4.720;2022-12-07T02:09:31;7.43;;;0.67;;
18435;SDS011;9346;52.006;4.720;2022-12-07T02:12:00;4.53;;;0.90;;
18435;SDS011;9346;52.006;4.720;2022-12-07T02:14:27;3.57;;;1.23;;
18435;SDS011;9346;52.006;4.720;2022-12-07T02:16:58;2.90;;;1.17;;
18435;SDS011;9346;52.006;4.720;2022-12-07T02:22:40;4.47;;;0.90;;
18435;SDS011;9346;52.006;4.720;2022-12-07T02:25:21;2.27;;;0.87;;
18435;SDS011;9346;52.006;4.720;2022-12-07T02:27:59;1.60;;;0.80;;
18435;SDS011;9346;52.006;4.720;2022-12-07T02:30:34;3.43;;;0.60;;
18435;SDS011;9346;52.006;4.720;2022-12-07T02:33:05;4.90;;;0.73;;
18435;SDS011;9346;52.006;4.720;2022-12-07T02:35:39;3.43;;;1.07;;
18435;SDS011;9346;52.006;4.720;2022-12-07T02:38:08;2.63;;;0.80;;
18435;SDS011;9346;52.006;4.720;2022-12-07T02:40:42;2.07;;;1.00;;
18435;SDS011;9346;52.006;4.720;2022-12-07T02:43:15;4.60;;;0.60;;
18435;SDS011;9346;52.006;4.720;2022-12-07T02:45:47;6.83;;;0.80;;
18435;SDS011;9346;52.006;4.720;2022-12-07T02:48:16;4.00;;;0.40;;
18435;SDS011;9346;52.006;4.720;2022-12-07T02:50:48;4.53;;;0.40;;
18435;SDS011;9346;52.006;4.720;2022-12-07T02:53:29;0.57;;;0.57;;
18435;SDS011;9346;52.006;4.720;2022-12-07T02:55:57;4.73;;;0.50;;
18435;SDS011;9346;52.006;4.720;2022-12-07T02:58:30;0.93;;;0.33;;
18435;SDS011;9346;52.006;4.720;2022-12-07T03:01:07;3.70;;;0.60;;
18435;SDS011;9346;52.006;4.720;2022-12-07T03:03:41;1.87;;;0.70;;
18435;SDS011;9346;52.006;4.720;2022-12-07T03:06:16;6.63;;;0.87;;
18435;SDS011;9346;52.006;4.720;2022-12-07T03:08:51;3.10;;;0.90;;
18435;SDS011;9346;52.006;4.720;2022-12-07T03:11:25;9.90;;;0.97;;
18435;SDS011;9346;52.006;4.720;2022-12-07T03:14:00;1.60;;;0.50;;
18435;SDS011;9346;52.006;4.720;2022-12-07T03:16:40;1.77;;;0.87;;
18435;SDS011;9346;52.006;4.720;2022-12-07T03:19:13;1.87;;;0.60;;
18435;SDS011;9346;52.006;4.720;2022-12-07T03:21:44;0.60;;;0.57;;
18435;SDS011;9346;52.006;4.720;2022-12-07T03:24:15;3.67;;;0.70;;
18435;SDS011;9346;52.006;4.720;2022-12-07T03:26:46;0.43;;;0.40;;
18435;SDS011;9346;52.006;4.720;2022-12-07T03:29:17;3.93;;;0.57;;
18435;SDS011;9346;52.006;4.720;2022-12-07T03:31:53;4.53;;;1.00;;
18435;SDS011;9346;52.006;4.720;2022-12-07T03:34:27;1.87;;;0.60;;
18435;SDS011;9346;52.006;4.720;2022-12-07T03:36:59;3.43;;;0.97;;
18435;SDS011;9346;52.006;4.720;2022-12-07T03:39:31;1.53;;;0.50;;
18435;SDS011;9346;52.006;4.720;2022-12-07T03:42:03;5.17;;;1.03;;
18435;SDS011;9346;52.006;4.720;2022-12-07T03:44:34;5.87;;;0.83;;
18435;SDS011;9346;52.006;4.720;2022-12-07T03:47:05;6.37;;;0.47;;
18435;SDS011;9346;52.006;4.720;2022-12-07T03:49:40;0.90;;;0.30;;
18435;SDS011;9346;52.006;4.720;2022-12-07T03:52:15;1.73;;;0.50;;
18435;SDS011;9346;52.006;4.720;2022-12-07T03:54:49;0.30;;;0.30;;
18435;SDS011;9346;52.006;4.720;2022-12-07T03:57:22;12.73;;;1.43;;
18435;SDS011;9346;52.006;4.720;2022-12-07T03:59:50;4.50;;;0.70;;
18435;SDS011;9346;52.006;4.720;2022-12-07T04:02:19;1.50;;;0.40;;
18435;SDS011;9346;52.006;4.720;2022-12-07T04:04:47;1.70;;;0.53;;
18435;SDS011;9346;52.006;4.720;2022-12-07T04:07:14;6.57;;;0.90;;
18435;SDS011;9346;52.006;4.720;2022-12-07T04:09:40;3.43;;;1.10;;
18435;SDS011;9346;52.006;4.720;2022-12-07T04:12:07;2.03;;;0.63;;
18435;SDS011;9346;52.006;4.720;2022-12-07T04:14:34;6.50;;;1.20;;
18435;SDS011;9346;52.006;4.720;2022-12-07T04:17:01;4.20;;;1.07;;
18435;SDS011;9346;52.006;4.720;2022-12-07T04:19:32;2.10;;;0.60;;
18435;SDS011;9346;52.006;4.720;2022-12-07T04:22:00;2.97;;;0.60;;
18435;SDS011;9346;52.006;4.720;2022-12-07T04:24:29;6.50;;;0.67;;
18435;SDS011;9346;52.006;4.720;2022-12-07T04:26:56;2.40;;;0.87;;
18435;SDS011;9346;52.006;4.720;2022-12-07T04:29:23;3.03;;;0.97;;
18435;SDS011;9346;52.006;4.720;2022-12-07T04:31:51;4.37;;;0.97;;
18435;SDS011;9346;52.006;4.720;2022-12-07T04:34:18;1.30;;;0.60;;
18435;SDS011;9346;52.006;4.720;2022-12-07T04:36:47;2.30;;;0.80;;
18435;SDS011;9346;52.006;4.720;2022-12-07T04:39:17;4.63;;;0.50;;
18435;SDS011;9346;52.006;4.720;2022-12-07T04:41:46;6.17;;;0.53;;
18435;SDS011;9346;52.006;4.720;2022-12-07T04:44:13;5.77;;;1.40;;
18435;SDS011;9346;52.006;4.720;2022-12-07T04:46:41;3.30;;;0.80;;
18435;SDS011;9346;52.006;4.720;2022-12-07T04:49:08;2.93;;;0.57;;
18435;SDS011;9346;52.006;4.720;2022-12-07T04:51:36;0.17;;;0.17;;
18435;SDS011;9346;52.006;4.720;2022-12-07T04:54:05;0.90;;;0.60;;
18435;SDS011;9346;52.006;4.720;2022-12-07T04:56:32;6.70;;;1.33;;
18435;SDS011;9346;52.006;4.720;2022-12-07T04:59:00;7.77;;;1.40;;
18435;SDS011;9346;52.006;4.720;2022-12-07T05:01:27;2.20;;;0.63;;
18435;SDS011;9346;52.006;4.720;2022-12-07T05:03:54;2.70;;;0.80;;
18435;SDS011;9346;52.006;4.720;2022-12-07T05:06:20;0.47;;;0.23;;
18435;SDS011;9346;52.006;4.720;2022-12-07T05:08:48;0.83;;;0.50;;
18435;SDS011;9346;52.006;4.720;2022-12-07T05:11:16;1.90;;;0.60;;
18435;SDS011;9346;52.006;4.720;2022-12-07T05:13:57;7.07;;;0.60;;
18435;SDS011;9346;52.006;4.720;2022-12-07T05:16:24;5.83;;;0.63;;
18435;SDS011;9346;52.006;4.720;2022-12-07T05:18:51;1.57;;;0.57;;
18435;SDS011;9346;52.006;4.720;2022-12-07T05:21:18;6.00;;;0.70;;
18435;SDS011;9346;52.006;4.720;2022-12-07T05:23:45;6.97;;;0.50;;
18435;SDS011;9346;52.006;4.720;2022-12-07T05:26:12;4.63;;;1.07;;
18435;SDS011;9346;52.006;4.720;2022-12-07T05:28:42;5.50;;;1.20;;
18435;SDS011;9346;52.006;4.720;2022-12-07T05:31:09;0.97;;;0.63;;
18435;SDS011;9346;52.006;4.720;2022-12-07T05:33:36;6.73;;;1.13;;
18435;SDS011;9346;52.006;4.720;2022-12-07T05:36:03;4.83;;;1.00;;
18435;SDS011;9346;52.006;4.720;2022-12-07T05:38:32;5.50;;;0.97;;
18435;SDS011;9346;52.006;4.720;2022-12-07T05:41:00;6.97;;;1.17;;
18435;SDS011;9346;52.006;4.720;2022-12-07T05:43:28;7.00;;;0.77;;
18435;SDS011;9346;52.006;4.720;2022-12-07T05:45:56;5.40;;;1.00;;
18435;SDS011;9346;52.006;4.720;2022-12-07T05:48:23;1.63;;;0.80;;
18435;SDS011;9346;52.006;4.720;2022-12-07T05:50:51;4.00;;;0.60;;
18435;SDS011;9346;52.006;4.720;2022-12-07T05:53:18;2.60;;;1.03;;
18435;SDS011;9346;52.006;4.720;2022-12-07T05:55:46;1.73;;;0.67;;
18435;SDS011;9346;52.006;4.720;2022-12-07T05:58:13;7.87;;;0.80;;
18435;SDS011;9346;52.006;4.720;2022-12-07T06:00:58;3.27;;;0.80;;
18435;SDS011;9346;52.006;4.720;2022-12-07T06:03:25;9.20;;;0.77;;
18435;SDS011;9346;52.006;4.720;2022-12-07T06:05:52;3.87;;;0.80;;
18435;SDS011;9346;52.006;4.720;2022-12-07T06:08:19;4.80;;;0.63;;
18435;SDS011;9346;52.006;4.720;2022-12-07T06:10:47;1.53;;;0.60;;
18435;SDS011;9346;52.006;4.720;2022-12-07T06:13:36;4.50;;;0.97;;
18435;SDS011;9346;52.006;4.720;2022-12-07T06:16:03;3.10;;;0.90;;
18435;SDS011;9346;52.006;4.720;2022-12-07T06:18:31;1.77;;;0.90;;
18435;SDS011;9346;52.006;4.720;2022-12-07T06:20:58;2.67;;;0.63;;
18435;SDS011;9346;52.006;4.720;2022-12-07T06:23:25;5.83;;;1.00;;
18435;SDS011;9346;52.006;4.720;2022-12-07T06:25:52;7.50;;;0.60;;
18435;SDS011;9346;52.006;4.720;2022-12-07T06:28:19;5.03;;;0.70;;
18435;SDS011;9346;52.006;4.720;2022-12-07T06:30:45;4.93;;;1.43;;
18435;SDS011;9346;52.006;4.720;2022-12-07T06:33:14;3.67;;;0.77;;
18435;SDS011;9346;52.006;4.720;2022-12-07T06:35:43;3.97;;;1.10;;
18435;SDS011;9346;52.006;4.720;2022-12-07T06:38:11;2.77;;;0.80;;
18435;SDS011;9346;52.006;4.720;2022-12-07T06:40:38;6.60;;;1.10;;
18435;SDS011;9346;52.006;4.720;2022-12-07T06:43:05;3.30;;;0.87;;
18435;SDS011;9346;52.006;4.720;2022-12-07T06:45:32;2.23;;;1.23;;
18435;SDS011;9346;52.006;4.720;2022-12-07T06:47:59;4.43;;;0.70;;
18435;SDS011;9346;52.006;4.720;2022-12-07T06:50:27;5.73;;;1.77;;
18435;SDS011;9346;52.006;4.720;2022-12-07T06:52:54;3.30;;;1.43;;
18435;SDS011;9346;52.006;4.720;2022-12-07T06:55:21;5.80;;;1.00;;
18435;SDS011;9346;52.006;4.720;2022-12-07T06:57:48;7.63;;;1.53;;
18435;SDS011;9346;52.006;4.720;2022-12-07T07:00:15;3.57;;;1.30;;
18435;SDS011;9346;52.006;4.720;2022-12-07T07:02:42;4.70;;;1.33;;
18435;SDS011;9346;52.006;4.720;2022-12-07T07:05:09;5.80;;;1.53;;
18435;SDS011;9346;52.006;4.720;2022-12-07T07:07:39;4.50;;;1.63;;
18435;SDS011;9346;52.006;4.720;2022-12-07T07:10:06;1.90;;;1.30;;
18435;SDS011;9346;52.006;4.720;2022-12-07T07:12:33;3.83;;;1.40;;
18435;SDS011;9346;52.006;4.720;2022-12-07T07:15:00;9.23;;;1.27;;
18435;SDS011;9346;52.006;4.720;2022-12-07T07:17:27;3.83;;;1.40;;
18435;SDS011;9346;52.006;4.720;2022-12-07T07:19:54;3.40;;;1.00;;
18435;SDS011;9346;52.006;4.720;2022-12-07T07:22:20;2.77;;;1.07;;
18435;SDS011;9346;52.006;4.720;2022-12-07T07:24:49;1.57;;;1.03;;
18435;SDS011;9346;52.006;4.720;2022-12-07T07:27:16;3.37;;;1.27;;
18435;SDS011;9346;52.006;4.720;2022-12-07T07:29:43;4.17;;;1.80;;
18435;SDS011;9346;52.006;4.720;2022-12-07T07:32:09;4.77;;;1.70;;
18435;SDS011;9346;52.006;4.720;2022-12-07T07:34:37;4.10;;;1.37;;
18435;SDS011;9346;52.006;4.720;2022-12-07T07:37:05;2.73;;;1.50;;
18435;SDS011;9346;52.006;4.720;2022-12-07T07:39:32;4.37;;;1.37;;
18435;SDS011;9346;52.006;4.720;2022-12-07T07:42:00;4.70;;;1.47;;
18435;SDS011;9346;52.006;4.720;2022-12-07T07:44:27;7.50;;;1.17;;
18435;SDS011;9346;52.006;4.720;2022-12-07T07:46:54;9.47;;;1.20;;
18435;SDS011;9346;52.006;4.720;2022-12-07T07:49:21;3.10;;;0.87;;
18435;SDS011;9346;52.006;4.720;2022-12-07T07:51:48;2.23;;;0.97;;
18435;SDS011;9346;52.006;4.720;2022-12-07T07:54:15;6.63;;;1.43;;
18435;SDS011;9346;52.006;4.720;2022-12-07T07:56:42;2.57;;;1.77;;
18435;SDS011;9346;52.006;4.720;2022-12-07T07:59:10;4.70;;;1.77;;
18435;SDS011;9346;52.006;4.720;2022-12-07T08:01:37;9.17;;;2.67;;
18435;SDS011;9346;52.006;4.720;2022-12-07T08:04:04;9.83;;;1.87;;
18435;SDS011;9346;52.006;4.720;2022-12-07T08:06:31;8.67;;;2.73;;
18435;SDS011;9346;52.006;4.720;2022-12-07T08:08:58;11.57;;;2.10;;
18435;SDS011;9346;52.006;4.720;2022-12-07T08:11:25;6.50;;;2.10;;
18435;SDS011;9346;52.006;4.720;2022-12-07T08:13:52;4.13;;;2.37;;
18435;SDS011;9346;52.006;4.720;2022-12-07T08:16:21;5.17;;;2.83;;
18435;SDS011;9346;52.006;4.720;2022-12-07T08:18:47;5.60;;;2.77;;
18435;SDS011;9346;52.006;4.720;2022-12-07T08:21:15;12.73;;;2.60;;
18435;SDS011;9346;52.006;4.720;2022-12-07T08:23:42;4.77;;;2.17;;
18435;SDS011;9346;52.006;4.720;2022-12-07T08:26:10;3.60;;;2.33;;
18435;SDS011;9346;52.006;4.720;2022-12-07T08:28:38;3.83;;;2.43;;
18435;SDS011;9346;52.006;4.720;2022-12-07T08:31:07;10.07;;;4.07;;
18435;SDS011;9346;52.006;4.720;2022-12-07T08:33:39;7.27;;;2.47;;
18435;SDS011;9346;52.006;4.720;2022-12-07T08:36:07;7.60;;;3.67;;
18435;SDS011;9346;52.006;4.720;2022-12-07T08:38:38;12.47;;;5.90;;
18435;SDS011;9346;52.006;4.720;2022-12-07T08:41:06;12.37;;;6.27;;
18435;SDS011;9346;52.006;4.720;2022-12-07T08:43:33;2.70;;;1.70;;
18435;SDS011;9346;52.006;4.720;2022-12-07T08:46:03;2.53;;;1.03;;
18435;SDS011;9346;52.006;4.720;2022-12-07T08:48:35;8.27;;;1.57;;
18435;SDS011;9346;52.006;4.720;2022-12-07T08:51:07;5.10;;;1.53;;
18435;SDS011;9346;52.006;4.720;2022-12-07T08:53:34;2.97;;;1.30;;
18435;SDS011;9346;52.006;4.720;2022-12-07T08:56:02;4.00;;;1.23;;
18435;SDS011;9346;52.006;4.720;2022-12-07T08:58:30;0.87;;;0.73;;
18435;SDS011;9346;52.006;4.720;2022-12-07T09:00:57;3.67;;;1.10;;
18435;SDS011;9346;52.006;4.720;2022-12-07T09:03:23;4.17;;;0.97;;
18435;SDS011;9346;52.006;4.720;2022-12-07T09:05:52;3.73;;;1.40;;
18435;SDS011;9346;52.006;4.720;2022-12-07T09:08:19;1.93;;;0.93;;
18435;SDS011;9346;52.006;4.720;2022-12-07T09:10:48;4.00;;;1.43;;
18435;SDS011;9346;52.006;4.720;2022-12-07T09:13:15;4.07;;;1.67;;
18435;SDS011;9346;52.006;4.720;2022-12-07T09:15:42;4.57;;;1.90;;
18435;SDS011;9346;52.006;4.720;2022-12-07T09:18:09;4.13;;;1.33;;
18435;SDS011;9346;52.006;4.720;2022-12-07T09:20:37;2.70;;;1.10;;
18435;SDS011;9346;52.006;4.720;2022-12-07T09:23:06;5.33;;;2.00;;
18435;SDS011;9346;52.006;4.720;2022-12-07T09:25:33;8.07;;;2.20;;
18435;SDS011;9346;52.006;4.720;2022-12-07T09:28:00;2.93;;;1.80;;
18435;SDS011;9346;52.006;4.720;2022-12-07T09:30:27;1.90;;;1.47;;
18435;SDS011;9346;52.006;4.720;2022-12-07T09:32:55;8.80;;;1.30;;
18435;SDS011;9346;52.006;4.720;2022-12-07T09:35:22;2.73;;;0.90;;
18435;SDS011;9346;52.006;4.720;2022-12-07T09:37:51;6.27;;;1.00;;
18435;SDS011;9346;52.006;4.720;2022-12-07T09:40:21;4.00;;;0.80;;
18435;SDS011;9346;52.006;4.720;2022-12-07T09:42:49;9.33;;;1.13;;
18435;SDS011;9346;52.006;4.720;2022-12-07T09:45:21;3.13;;;0.80;;
18435;SDS011;9346;52.006;4.720;2022-12-07T09:47:50;1.07;;;0.70;;
18435;SDS011;9346;52.006;4.720;2022-12-07T09:50:19;1.57;;;0.73;;
18435;SDS011;9346;52.006;4.720;2022-12-07T09:52:47;5.83;;;1.40;;
18435;SDS011;9346;52.006;4.720;2022-12-07T09:55:15;1.83;;;1.10;;
18435;SDS011;9346;52.006;4.720;2022-12-07T09:57:47;1.87;;;1.13;;
18435;SDS011;9346;52.006;4.720;2022-12-07T10:00:17;3.80;;;1.40;;
18435;SDS011;9346;52.006;4.720;2022-12-07T10:02:47;3.67;;;1.57;;
18435;SDS011;9346;52.006;4.720;2022-12-07T10:05:20;1.83;;;1.00;;
18435;SDS011;9346;52.006;4.720;2022-12-07T10:07:50;4.60;;;1.57;;
18435;SDS011;9346;52.006;4.720;2022-12-07T10:10:19;6.47;;;1.60;;
18435;SDS011;9346;52.006;4.720;2022-12-07T10:12:58;4.83;;;1.50;;
18435;SDS011;9346;52.006;4.720;2022-12-07T10:15:42;3.43;;;1.20;;
18435;SDS011;9346;52.006;4.720;2022-12-07T10:18:21;2.60;;;1.07;;
18435;SDS011;9346;52.006;4.720;2022-12-07T10:21:00;1.30;;;1.20;;
18435;SDS011;9346;52.006;4.720;2022-12-07T10:23:29;6.40;;;2.30;;
18435;SDS011;9346;52.006;4.720;2022-12-07T10:25:56;3.60;;;1.80;;
18435;SDS011;9346;52.006;4.720;2022-12-07T10:28:27;9.57;;;2.10;;
18435;SDS011;9346;52.006;4.720;2022-12-07T10:31:01;2.37;;;1.87;;
18435;SDS011;9346;52.006;4.720;2022-12-07T10:33:31;3.20;;;1.43;;
18435;SDS011;9346;52.006;4.720;2022-12-07T10:35:59;3.40;;;1.43;;
18435;SDS011;9346;52.006;4.720;2022-12-07T10:38:35;4.60;;;2.47;;
18435;SDS011;9346;52.006;4.720;2022-12-07T10:41:11;4.97;;;1.67;;
18435;SDS011;9346;52.006;4.720;2022-12-07T10:43:41;4.93;;;1.70;;
18435;SDS011;9346;52.006;4.720;2022-12-07T10:49:37;4.97;;;1.53;;
18435;SDS011;9346;52.006;4.720;2022-12-07T10:52:26;1.37;;;1.10;;
18435;SDS011;9346;52.006;4.720;2022-12-07T10:55:08;4.47;;;1.93;;
18435;SDS011;9346;52.006;4.720;2022-12-07T10:57:47;3.87;;;2.60;;
18435;SDS011;9346;52.006;4.720;2022-12-07T11:00:37;1.23;;;0.80;;
18435;SDS011;9346;52.006;4.720;2022-12-07T11:03:18;2.83;;;1.27;;
18435;SDS011;9346;52.006;4.720;2022-12-07T11:05:53;1.97;;;1.00;;
18435;SDS011;9346;52.006;4.720;2022-12-07T11:08:31;3.73;;;0.87;;
18435;SDS011;9346;52.006;4.720;2022-12-07T11:11:13;4.80;;;1.77;;
18435;SDS011;9346;52.006;4.720;2022-12-07T11:13:44;4.50;;;1.23;;
18435;SDS011;9346;52.006;4.720;2022-12-07T11:16:23;2.07;;;1.30;;
18435;SDS011;9346;52.006;4.720;2022-12-07T11:19:04;9.00;;;1.77;;
18435;SDS011;9346;52.006;4.720;2022-12-07T11:21:44;7.03;;;1.43;;
18435;SDS011;9346;52.006;4.720;2022-12-07T11:24:15;6.20;;;1.67;;
18435;SDS011;9346;52.006;4.720;2022-12-07T11:26:50;4.97;;;1.20;;
18435;SDS011;9346;52.006;4.720;2022-12-07T11:32:39;1.73;;;0.90;;
18435;SDS011;9346;52.006;4.720;2022-12-07T11:35:15;3.30;;;1.07;;
18435;SDS011;9346;52.006;4.720;2022-12-07T11:37:51;8.33;;;1.73;;
18435;SDS011;9346;52.006;4.720;2022-12-07T11:40:24;1.63;;;1.10;;
18435;SDS011;9346;52.006;4.720;2022-12-07T11:42:56;8.33;;;1.63;;
18435;SDS011;9346;52.006;4.720;2022-12-07T11:45:27;6.63;;;2.27;;
18435;SDS011;9346;52.006;4.720;2022-12-07T11:47:58;2.87;;;1.30;;
18435;SDS011;9346;52.006;4.720;2022-12-07T11:50:30;6.47;;;2.27;;
18435;SDS011;9346;52.006;4.720;2022-12-07T11:53:01;3.40;;;1.33;;
18435;SDS011;9346;52.006;4.720;2022-12-07T11:55:39;7.13;;;1.30;;
18435;SDS011;9346;52.006;4.720;2022-12-07T11:58:13;2.97;;;1.27;;
18435;SDS011;9346;52.006;4.720;2022-12-07T12:00:49;6.17;;;1.43;;
18435;SDS011;9346;52.006;4.720;2022-12-07T12:03:25;6.73;;;1.00;;
18435;SDS011;9346;52.006;4.720;2022-12-07T12:05:58;0.90;;;0.60;;
18435;SDS011;9346;52.006;4.720;2022-12-07T12:08:26;4.53;;;1.07;;
18435;SDS011;9346;52.006;4.720;2022-12-07T12:11:00;4.60;;;0.87;;
18435;SDS011;9346;52.006;4.720;2022-12-07T12:13:51;5.20;;;0.80;;
18435;SDS011;9346;52.006;4.720;2022-12-07T12:19:44;3.67;;;0.83;;
18435;SDS011;9346;52.006;4.720;2022-12-07T12:22:26;2.17;;;1.10;;
18435;SDS011;9346;52.006;4.720;2022-12-07T12:25:02;5.70;;;1.17;;
18435;SDS011;9346;52.006;4.720;2022-12-07T12:27:33;4.00;;;1.00;;
18435;SDS011;9346;52.006;4.720;2022-12-07T12:30:05;0.80;;;0.80;;
18435;SDS011;9346;52.006;4.720;2022-12-07T12:32:37;6.50;;;1.23;;
18435;SDS011;9346;52.006;4.720;2022-12-07T12:35:28;2.83;;;0.60;;
18435;SDS011;9346;52.006;4.720;2022-12-07T12:40:53;3.00;;;0.50;;
18435;SDS011;9346;52.006;4.720;2022-12-07T12:43:40;3.50;;;0.67;;
18435;SDS011;9346;52.006;4.720;2022-12-07T12:55:15;4.33;;;1.00;;
18435;SDS011;9346;52.006;4.720;2022-12-07T12:57:46;2.93;;;1.00;;
18435;SDS011;9346;52.006;4.720;2022-12-07T13:00:18;1.97;;;0.80;;
18435;SDS011;9346;52.006;4.720;2022-12-07T13:02:47;2.90;;;1.30;;
18435;SDS011;9346;52.006;4.720;2022-12-07T13:05:17;4.27;;;0.80;;
18435;SDS011;9346;52.006;4.720;2022-12-07T13:07:51;4.83;;;0.90;;
18435;SDS011;9346;52.006;4.720;2022-12-07T13:10:25;4.63;;;0.90;;
18435;SDS011;9346;52.006;4.720;2022-12-07T13:13:04;2.70;;;0.60;;
18435;SDS011;9346;52.006;4.720;2022-12-07T13:15:56;1.30;;;0.57;;
18435;SDS011;9346;52.006;4.720;2022-12-07T13:28:20;0.87;;;0.37;;
18435;SDS011;9346;52.006;4.720;2022-12-07T13:30:58;2.73;;;0.60;;
18435;SDS011;9346;52.006;4.720;2022-12-07T13:33:30;2.33;;;0.53;;
18435;SDS011;9346;52.006;4.720;2022-12-07T13:35:57;2.07;;;0.53;;
18435;SDS011;9346;52.006;4.720;2022-12-07T13:38:27;4.50;;;0.77;;
18435;SDS011;9346;52.006;4.720;2022-12-07T13:40:59;2.53;;;0.70;;
18435;SDS011;9346;52.006;4.720;2022-12-07T13:43:30;1.70;;;0.87;;
18435;SDS011;9346;52.006;4.720;2022-12-07T13:45:58;2.83;;;0.97;;
18435;SDS011;9346;52.006;4.720;2022-12-07T13:48:28;3.90;;;0.67;;
18435;SDS011;9346;52.006;4.720;2022-12-07T13:50:59;1.53;;;0.70;;
18435;SDS011;9346;52.006;4.720;2022-12-07T13:53:28;2.77;;;0.50;;
18435;SDS011;9346;52.006;4.720;2022-12-07T13:55:56;0.50;;;0.30;;
18435;SDS011;9346;52.006;4.720;2022-12-07T13:58:24;0.77;;;0.40;;
18435;SDS011;9346;52.006;4.720;2022-12-07T14:00:54;3.63;;;1.13;;
18435;SDS011;9346;52.006;4.720;2022-12-07T14:03:28;3.30;;;0.83;;
18435;SDS011;9346;52.006;4.720;2022-12-07T14:06:05;2.07;;;0.87;;
18435;SDS011;9346;52.006;4.720;2022-12-07T14:08:34;3.50;;;0.90;;
18435;SDS011;9346;52.006;4.720;2022-12-07T14:11:01;1.40;;;1.03;;
18435;SDS011;9346;52.006;4.720;2022-12-07T14:13:35;1.50;;;1.00;;
18435;SDS011;9346;52.006;4.720;2022-12-07T14:16:23;0.83;;;0.50;;
18435;SDS011;9346;52.006;4.720;2022-12-07T14:18:52;0.80;;;0.50;;
18435;SDS011;9346;52.006;4.720;2022-12-07T14:21:20;2.40;;;0.80;;
18435;SDS011;9346;52.006;4.720;2022-12-07T14:26:44;5.50;;;0.50;;
18435;SDS011;9346;52.006;4.720;2022-12-07T14:29:22;2.30;;;0.67;;
18435;SDS011;9346;52.006;4.720;2022-12-07T14:32:01;1.90;;;0.77;;
18435;SDS011;9346;52.006;4.720;2022-12-07T14:35:03;7.97;;;1.00;;
18435;SDS011;9346;52.006;4.720;2022-12-07T14:37:37;2.63;;;0.80;;
18435;SDS011;9346;52.006;4.720;2022-12-07T14:40:05;4.33;;;0.70;;
18435;SDS011;9346;52.006;4.720;2022-12-07T14:42:34;6.30;;;0.93;;
18435;SDS011;9346;52.006;4.720;2022-12-07T14:45:01;0.87;;;0.67;;
18435;SDS011;9346;52.006;4.720;2022-12-07T14:47:31;0.80;;;0.53;;
18435;SDS011;9346;52.006;4.720;2022-12-07T14:49:58;0.73;;;0.73;;
18435;SDS011;9346;52.006;4.720;2022-12-07T14:52:26;0.90;;;0.43;;
18435;SDS011;9346;52.006;4.720;2022-12-07T14:54:55;0.80;;;0.80;;
18435;SDS011;9346;52.006;4.720;2022-12-07T14:57:22;0.97;;;0.60;;
18435;SDS011;9346;52.006;4.720;2022-12-07T14:59:50;1.43;;;0.70;;
18435;SDS011;9346;52.006;4.720;2022-12-07T15:02:17;2.20;;;0.67;;
18435;SDS011;9346;52.006;4.720;2022-12-07T15:04:45;1.20;;;0.47;;
18435;SDS011;9346;52.006;4.720;2022-12-07T15:07:15;0.40;;;0.40;;
18435;SDS011;9346;52.006;4.720;2022-12-07T15:09:46;5.47;;;1.37;;
18435;SDS011;9346;52.006;4.720;2022-12-07T15:12:14;1.50;;;0.90;;
18435;SDS011;9346;52.006;4.720;2022-12-07T15:14:41;4.40;;;1.07;;
18435;SDS011;9346;52.006;4.720;2022-12-07T15:17:09;2.43;;;0.90;;
18435;SDS011;9346;52.006;4.720;2022-12-07T15:19:37;3.90;;;1.30;;
18435;SDS011;9346;52.006;4.720;2022-12-07T15:22:06;3.43;;;1.00;;
18435;SDS011;9346;52.006;4.720;2022-12-07T15:24:35;5.93;;;2.13;;
18435;SDS011;9346;52.006;4.720;2022-12-07T15:27:04;5.63;;;1.13;;
18435;SDS011;9346;52.006;4.720;2022-12-07T15:29:32;5.83;;;1.63;;
18435;SDS011;9346;52.006;4.720;2022-12-07T15:32:07;2.37;;;1.30;;
18435;SDS011;9346;52.006;4.720;2022-12-07T15:34:37;1.73;;;0.90;;
18435;SDS011;9346;52.006;4.720;2022-12-07T15:37:08;2.60;;;1.10;;
18435;SDS011;9346;52.006;4.720;2022-12-07T15:39:35;3.80;;;1.10;;
18435;SDS011;9346;52.006;4.720;2022-12-07T15:42:03;2.17;;;1.27;;
18435;SDS011;9346;52.006;4.720;2022-12-07T15:44:30;3.20;;;1.13;;
18435;SDS011;9346;52.006;4.720;2022-12-07T15:47:14;5.60;;;1.53;;
18435;SDS011;9346;52.006;4.720;2022-12-07T15:49:42;3.10;;;1.23;;
18435;SDS011;9346;52.006;4.720;2022-12-07T15:52:13;3.13;;;1.77;;
18435;SDS011;9346;52.006;4.720;2022-12-07T15:54:40;2.53;;;1.40;;
18435;SDS011;9346;52.006;4.720;2022-12-07T15:57:07;6.97;;;2.03;;